»·PEaware :: WAT169 KRNO-KSLC

WAT169 :: KRNO-KSLC

FLIGHT INFORMATION

Flight Status: Arrived
Operator:
Walker Air Transport
More flights by this operator :: More flights under this callsign
Pilot: Marty P. (27464)
Aircraft: DASSAULT AVIATION FALCON 50
(FA50)
More flights by this aircraft type
Origin: KRNO Reno/Tahoe Intl
United States
Destination: KSLC Salt Lake City Intl
United States
More flights between these airports :: More routes between these airports
Route: ZEFFR6 BLKJK LLC BAM J154 BVL WATTS5
File this flight plan on PilotEdge
Remarks: Good morning ^_^
Altitude:
(Current/Filed)
39,000ft
Speed:
(Current/Filed)
480kts
Departed: 21-Nov-20 09:50 AM
Arrived: 21-Nov-20 11:01 AM
Distance/Time
Traveled:
366nm/1:11
Distance/Time
To Go:
Arrived

Flight Plot

Page will automatically refresh every two minutes.

Flight plan parsing failed; only flown route is shown


Map Options




Map Legend


Flown Route
Filed Route
Departure Airport
Arrival Airport
Navaid (VOR, NDB)
Fix

Horizontal Profiles

Position Reports

Time Latitude Longitude Heading Altitude Ground
Speed
21-Nov-20 09:24 39.498794 -119.764753 268 4422ft 0kts
21-Nov-20 09:25 39.498794 -119.764753 268 4422ft 0kts
21-Nov-20 09:26 39.498794 -119.764753 268 4422ft 0kts
21-Nov-20 09:27 39.498794 -119.764753 268 4422ft 0kts
21-Nov-20 09:28 39.498794 -119.764753 268 4422ft 0kts
21-Nov-20 09:29 39.498794 -119.764753 268 4422ft 0kts
21-Nov-20 09:30 39.498794 -119.764753 268 4422ft 0kts
21-Nov-20 09:31 39.498794 -119.764753 268 4422ft 0kts
21-Nov-20 09:32 39.498794 -119.764753 268 4422ft 0kts
21-Nov-20 09:33 39.498794 -119.764753 268 4422ft 0kts
21-Nov-20 09:34 39.498794 -119.764753 268 4422ft 0kts
21-Nov-20 09:35 39.498794 -119.764753 268 4422ft 0kts
21-Nov-20 09:36 39.498794 -119.764753 268 4422ft 0kts
21-Nov-20 09:37 39.498794 -119.764753 268 4422ft 0kts
21-Nov-20 09:38 39.498794 -119.764753 268 4422ft 0kts
21-Nov-20 09:39 39.498794 -119.764753 268 4422ft 0kts
21-Nov-20 09:40 39.498792 -119.764879 268 4422ft 0kts
21-Nov-20 09:41 39.500691 -119.765220 338 4422ft 6kts
21-Nov-20 09:42 39.503527 -119.765720 0 4422ft 21kts
21-Nov-20 09:43 39.507948 -119.765706 359 4422ft 11kts
21-Nov-20 09:44 39.510265 -119.765453 42 4422ft 7kts
21-Nov-20 09:45 39.512849 -119.765159 0 4422ft 8kts
21-Nov-20 09:46 39.513727 -119.765627 279 4422ft 0kts
21-Nov-20 09:47 39.513727 -119.765627 279 4422ft 0kts
21-Nov-20 09:48 39.512684 -119.766750 180 4422ft 16kts
21-Nov-20 09:49 39.476550 -119.765724 177 6020ft 182kts
21-Nov-20 09:50 39.420706 -119.769192 180 9158ft 258kts
21-Nov-20 09:51 39.364478 -119.722919 90 12554ft 318kts
21-Nov-20 09:52 39.402266 -119.606661 61 15204ft 380kts
21-Nov-20 09:53 39.448504 -119.479379 62 18400ft 406kts
21-Nov-20 09:54 39.498351 -119.345417 53 21218ft 420kts
21-Nov-20 09:55 39.580179 -119.237233 38 23569ft 428kts
21-Nov-20 09:56 39.667110 -119.133070 38 25654ft 412kts
21-Nov-20 09:57 39.751419 -119.031685 37 27824ft 421kts
21-Nov-20 09:58 39.838681 -118.926401 37 29456ft 435kts
21-Nov-20 09:59 39.928368 -118.817673 37 30891ft 447kts
21-Nov-20 10:00 40.018453 -118.707877 37 33062ft 434kts
21-Nov-20 10:01 40.106282 -118.600510 38 34633ft 436kts
21-Nov-20 10:02 40.160744 -118.454054 66 35991ft 458kts
21-Nov-20 10:03 40.202987 -118.296170 66 37183ft 463kts
21-Nov-20 10:04 40.245789 -118.138583 66 37758ft 462kts
21-Nov-20 10:05 40.289120 -117.979116 66 38654ft 471kts
21-Nov-20 10:06 40.332954 -117.816553 66 39502ft 478kts
21-Nov-20 10:07 40.378360 -117.647285 66 39495ft 505kts
21-Nov-20 10:08 40.425401 -117.470434 66 39496ft 524kts
21-Nov-20 10:09 40.473704 -117.287466 67 39481ft 536kts
21-Nov-20 10:10 40.522471 -117.101358 67 39484ft 541kts
21-Nov-20 10:11 40.568427 -116.912627 77 39491ft 548kts
21-Nov-20 10:12 40.582636 -116.712909 83 39498ft 551kts
21-Nov-20 10:13 40.594513 -116.511779 83 39500ft 553kts
21-Nov-20 10:14 40.606361 -116.310136 84 39481ft 546kts
21-Nov-20 10:15 40.617450 -116.115860 84 39488ft 524kts
21-Nov-20 10:16 40.627975 -115.926573 84 39483ft 514kts
21-Nov-20 10:17 40.637993 -115.740846 84 39486ft 507kts
21-Nov-20 10:19 40.647631 -115.556643 83 39489ft 502kts
21-Nov-20 10:20 40.656913 -115.373664 83 39492ft 498kts
21-Nov-20 10:21 40.665824 -115.192463 84 39485ft 500kts
21-Nov-20 10:22 40.674763 -115.005589 84 39488ft 522kts
21-Nov-20 10:23 40.683641 -114.812016 84 39499ft 537kts
21-Nov-20 10:24 40.692348 -114.614443 84 39509ft 546kts
21-Nov-20 10:25 40.700926 -114.411838 84 37142ft 553kts
21-Nov-20 10:26 40.708938 -114.213750 84 34166ft 531kts
21-Nov-20 10:27 40.716528 -114.019552 85 31653ft 530kts
21-Nov-20 10:28 40.723753 -113.826472 85 29171ft 541kts
21-Nov-20 10:29 40.726786 -113.630050 88 26690ft 530kts
21-Nov-20 10:30 40.725766 -113.435525 88 24214ft 523kts
21-Nov-20 10:31 40.725039 -113.254157 88 21701ft 475kts
21-Nov-20 10:32 40.724191 -113.083283 88 19186ft 469kts
21-Nov-20 10:32 40.723276 -112.942332 88 17450ft 449kts
21-Nov-20 10:34 40.721808 -112.758114 88 17473ft 416kts
21-Nov-20 10:34 40.720660 -112.630712 88 17016ft 424kts
21-Nov-20 10:35 40.727337 -112.481797 75 15026ft 386kts
21-Nov-20 10:37 40.752681 -112.330148 75 13978ft 332kts
21-Nov-20 10:37 40.765118 -112.231168 87 11926ft 292kts
21-Nov-20 10:39 40.743018 -112.118719 136 11996ft 292kts
21-Nov-20 10:39 40.683514 -112.083813 177 11990ft 281kts
21-Nov-20 10:41 40.594222 -112.073483 176 11072ft 259kts
21-Nov-20 10:41 40.538766 -112.067022 177 10990ft 238kts
21-Nov-20 10:42 40.472195 -112.059296 177 10989ft 243kts
21-Nov-20 10:43 40.405515 -112.051519 177 10985ft 237kts
21-Nov-20 10:44 40.340657 -112.043985 177 10985ft 232kts
21-Nov-20 10:45 40.276987 -112.036747 177 10983ft 228kts
21-Nov-20 10:46 40.214263 -112.029798 177 10981ft 224kts
21-Nov-20 10:47 40.192265 -111.971170 43 11025ft 214kts
21-Nov-20 10:48 40.247790 -111.947614 8 11003ft 217kts
21-Nov-20 10:49 40.308890 -111.936393 3 10512ft 228kts
21-Nov-20 10:50 40.367438 -111.929076 2 10990ft 196kts
21-Nov-20 10:51 40.420922 -111.922986 357 11005ft 195kts
21-Nov-20 10:52 40.477988 -111.928744 353 10064ft 216kts
21-Nov-20 10:53 40.536996 -111.935552 354 9038ft 211kts
21-Nov-20 10:54 40.587620 -111.941357 354 7925ft 158kts
21-Nov-20 10:55 40.628206 -111.946063 354 7153ft 137kts
21-Nov-20 10:56 40.660938 -111.961180 351 6338ft 121kts
21-Nov-20 10:57 40.695060 -111.961995 0 5913ft 133kts
21-Nov-20 10:58 40.728817 -111.962072 356 5137ft 114kts
21-Nov-20 10:59 40.760959 -111.962031 356 4470ft 116kts
21-Nov-20 11:00 40.782388 -111.961615 76 4225ft 13kts
21-Nov-20 11:01 40.782416 -111.960762 88 4224ft 2kts
21-Nov-20 11:02 40.780957 -111.959249 179 4226ft 11kts
21-Nov-20 11:03 40.778373 -111.958089 118 4226ft 8kts
21-Nov-20 11:04 40.778729 -111.957969 268 4226ft 0kts
21-Nov-20 11:05 40.778729 -111.957969 268 4226ft 0kts
21-Nov-20 11:06 40.778729 -111.957969 268 4226ft 0kts
21-Nov-20 11:07 40.778729 -111.957969 268 4226ft 0kts
21-Nov-20 11:08 40.778729 -111.957969 268 4226ft 0kts
21-Nov-20 11:09 40.778729 -111.957969 268 4226ft 0kts
21-Nov-20 11:10 40.778729 -111.957969 268 4226ft 0kts
21-Nov-20 11:11 40.778729 -111.957969 268 4226ft 0kts
21-Nov-20 11:12 40.778729 -111.957969 268 4226ft 0kts
21-Nov-20 11:13 40.778729 -111.957969 268 4226ft 0kts

Navigation Log

Ident Type
Flight plan parsing failed, navigation log unavailable